Latest Coastal Weather Observations for Nullarbor

IDS60701

Issued at 11:31 pm CST Monday 25 July 2016 (issued every 10 minutes, with the page automatically refreshed every 10 minutes)

About coastal observations | Map of coastal stations | Coastal observations for SA | Marine services | Other Formats
Station Details ID: 018106 Name: NULLARBOR Lat: -31.45 Lon: 130.90 Height: 64.0 m
Data from the previous 72 hours. | See also: Recent months at Nullarbor
Date/Time
CST
Temp
°C
Wind Pressure Rain since
9am
mm
Weather Cloud Vis
km
Sea
Height
m
Swell
Dir  Spd
kts
Gust
kts
hPa Trend Height
m
Period
s
Dir
25/11:30pm 6.3 W 7 9 1023.3 - 0.2 - - 10 - - - -
25/11:00pm 6.5 WNW 7 8 1023.3 - 0.2 - - 10 - - - -
25/10:30pm 6.9 WNW 7 7 1023.2 - 0.2 - - 10 - - - -
25/10:00pm 7.7 NW 6 7 1023.2 - 0.2 - - 10 - - - -
25/09:30pm 8.5 WNW 6 7 1023.2 - 0.2 - - 10 - - - -
25/09:00pm 9.3 W 7 9 1023.3 - 0.2 - Mostly clear 10 - - - -
25/08:30pm 9.5 WSW 7 8 1023.1 - 0.2 - - 10 - - - -
25/08:00pm 10.2 WSW 7 9 1023.0 - 0.2 - - 10 - - - -
25/07:30pm 10.5 WSW 7 9 1023.0 - 0.2 - - 10 - - - -
25/07:00pm 11.3 WSW 8 9 1022.9 - 0.2 - Partly cloudy 10 - - - -
25/06:30pm 12.1 WSW 9 12 1022.7 - 0.2 - Partly cloudy 10 - - - -
25/06:00pm 12.9 WSW 11 15 1022.5 - 0.2 - Mostly clear 10 - - - -
25/05:30pm 13.7 WSW 11 16 1022.4 - 0.2 - - 10 - - - -
25/05:00pm 14.5 WSW 13 18 1022.4 - 0.2 - - 10 - - - -
25/04:30pm 14.6 WSW 15 21 1022.1 - 0.2 - - 10 - - - -
25/04:00pm 14.9 WSW 14 19 1021.9 - 0.2 - - 10 - - - -
25/03:30pm 15.2 WSW 15 21 1022.0 - 0.2 - - 10 - - - -
25/03:00pm 15.1 WSW 18 23 1021.9 - 0.2 - - 10 - - - -
25/02:30pm 15.4 WSW 16 24 1022.0 - 0.2 - - 10 - - - -
25/02:00pm 15.6 WSW 17 23 1022.1 - 0.2 - - 10 - - - -
25/01:30pm 15.4 W 14 20 1022.7 - 0.2 - - 10 - - - -
25/01:00pm 14.8 W 15 21 1023.1 - 0.2 - - 10 - - - -
25/12:30pm 14.3 W 17 24 1023.6 - 0.2 - - 10 - - - -
25/12:00pm 14.1 W 17 23 1024.1 - 0.0 - - 10 - - - -
25/11:30am 13.5 W 18 23 1024.5 - 0.0 - - 10 - - - -
25/11:00am 12.9 W 16 21 1024.7 - 0.0 - - 10 - - - -
25/10:30am 11.8 WNW 15 21 1024.7 - 0.0 - - 10 - - - -
25/10:00am 11.1 WNW 14 19 1024.5 - 0.0 - - 10 - - - -
25/09:30am 9.8 WNW 12 17 1024.4 - 0.0 - - 10 - - - -
25/09:00am 7.8 WNW 12 15 1024.0 - 0.0 - - 10 - - - -
25/08:30am 6.2 NW 10 12 1023.6 - 0.0 - - 10 - - - -
25/08:00am 5.0 NW 8 11 1023.4 - 0.0 - - 10 - - - -
25/07:30am 4.8 NW 7 9 1023.5 - 0.0 - - 10 - - - -
25/07:00am 4.9 NW 9 10 1023.2 - 0.0 - - 10 - - - -
25/06:30am 4.8 NW 8 10 1023.2 - 0.0 - - 10 - - - -
25/06:00am 4.7 NW 8 9 1023.2 - 0.0 - - 10 - - - -
25/05:30am 5.1 NW 8 10 1023.0 - 0.0 - - 10 - - - -
25/05:00am 5.6 WNW 9 10 1022.8 - 0.0 - Partly cloudy 10 - - - -
25/04:30am 6.1 WNW 10 14 1022.8 - 0.0 - - 10 - - - -
25/04:00am 5.8 WNW 9 12 1023.0 - 0.0 - - 10 - - - -
25/03:30am 6.3 WNW 9 12 1023.1 - 0.0 - Partly cloudy 10 - - - -
25/03:00am 6.4 WNW 10 12 1023.1 - 0.0 - Partly cloudy 10 - - - -
25/02:30am 5.7 WNW 9 10 1023.2 - 0.0 - - 10 - - - -
25/02:00am 5.9 NW 7 8 1023.3 - 0.0 - - 10 - - - -
25/01:30am 7.1 NW 7 9 1023.4 - 0.0 - Partly cloudy 10 - - - -
25/01:00am 7.8 WNW 8 10 1023.7 - 0.0 - Partly cloudy 10 - - - -
25/12:30am 6.9 WNW 8 9 1023.8 - 0.0 - Partly cloudy 10 - - - -
25/12:00am 7.0 WNW 8 9 1024.0 - 0.0 - Mostly cloudy 10 - - - -
 
Date/Time
CST
Temp
°C
Wind Pressure Rain since
9am
mm
Weather Cloud Vis
km
Sea
Height
m
Swell
Dir  Spd
kts
Gust
kts
hPa Trend Height
m
Period
s
Dir
24/11:30pm 7.4 WNW 8 9 1024.0 - 0.0 - - 10 - - - -
24/11:00pm 8.2 WNW 8 9 1024.1 - 0.0 - - 10 - - - -
24/10:30pm 9.0 WNW 7 8 1024.2 - 0.0 - Partly cloudy 10 - - - -
24/10:00pm 9.5 WNW 8 10 1024.1 - 0.0 - Partly cloudy 10 - - - -
24/09:30pm 9.3 WNW 9 11 1023.9 - 0.0 - - 10 - - - -
24/09:00pm 10.1 NW 7 9 1023.9 - 0.0 - Cloudy 10 - - - -
24/08:30pm 10.6 WNW 7 10 1023.7 - 0.0 - Partly cloudy 10 - - - -
24/08:00pm 10.5 WNW 7 9 1023.5 - 0.0 - Partly cloudy 10 - - - -
24/07:30pm 10.4 WNW 7 8 1023.3 - 0.0 - Partly cloudy 10 - - - -
24/07:00pm 11.0 WNW 7 9 1023.1 - 0.0 - Partly cloudy 10 - - - -
24/06:30pm 11.2 W 13 18 1022.8 - 0.0 - Partly cloudy 10 - - - -
24/06:00pm 11.9 W 14 20 1022.4 - 0.0 - Cloudy 10 - - - -
24/05:30pm 12.8 WSW 14 21 1022.0 - 0.0 - - 10 - - - -
24/05:00pm 12.4 W 12 16 1021.9 - 0.0 - Partly cloudy 10 - - - -
24/04:30pm 13.1 WSW 17 26 1021.5 - 0.0 - Partly cloudy 10 - - - -
24/04:00pm 13.9 WSW 18 24 1021.3 - 0.0 - - 10 - - - -
24/03:30pm 14.0 WSW 17 24 1021.2 - 0.0 - Partly cloudy 10 - - - -
24/03:00pm 14.2 WSW 17 24 1021.1 - 0.0 - Partly cloudy 10 - - - -
24/02:30pm 13.8 WSW 17 23 1021.1 - 0.0 - Partly cloudy 10 - - - -
24/02:01pm 14.1 W 16 27 1021.1 - 0.0 - Partly cloudy 10 - - - -
24/02:00pm 14.1 W 15 21 1021.2 - 0.0 - Partly cloudy 10 - - - -
24/01:37pm 13.2 WSW 19 29 1021.2 - 0.0 - Partly cloudy 10 - - - -
24/01:30pm 14.0 WSW 18 25 1021.2 - 0.0 - Partly cloudy 10 - - - -
24/01:08pm 12.7 W 15 21 1021.4 - 0.0 - Partly cloudy 10 - - - -
24/01:00pm 11.9 WSW 18 26 1021.5 - 0.0 - Partly cloudy 8 - - - -
24/12:58pm 11.6 WSW 20 32 1021.6 - 0.0 - Partly cloudy 7 - - - -
24/12:30pm 12.1 WSW 21 33 1021.5 - 0.0 - Partly cloudy 10 - - - -
24/12:24pm 11.8 SW 21 33 1021.4 - 0.0 - Partly cloudy 10 - - - -
24/12:00pm 13.7 WSW 20 26 1021.1 - 0.0 - Partly cloudy 10 - - - -
24/11:30am 13.7 WSW 19 28 1021.0 - 0.0 - Partly cloudy 10 - - - -
24/11:02am 13.4 WSW 19 26 1020.9 - 0.0 - Partly cloudy 10 - - - -
24/11:00am 13.2 WSW 20 29 1020.8 - 0.0 - Partly cloudy 10 - - - -
24/10:52am 13.1 WSW 19 29 1020.8 - 0.0 - Partly cloudy 10 - - - -
24/10:30am 13.0 WSW 20 25 1020.6 - 0.0 - Partly cloudy 10 - - - -
24/10:06am 12.5 WSW 15 25 1020.3 - 0.0 - Partly cloudy 10 - - - -
24/10:00am 12.2 W 13 21 1020.2 - 0.0 - Partly cloudy 10 - - - -
24/09:30am 10.0 W 10 15 1019.8 - 0.0 - Partly cloudy 10 - - - -
24/09:00am 8.6 WNW 11 14 1019.4 - 0.2 - Cloudy 10 - - - -
24/08:30am 7.3 WNW 10 13 1018.8 - 0.2 - Partly cloudy 10 - - - -
24/08:00am 7.4 W 12 18 1018.3 - 0.2 - Partly cloudy 10 - - - -
24/07:30am 6.5 WNW 13 16 1017.9 - 0.2 - Partly cloudy 10 - - - -
24/07:00am 6.2 WNW 13 16 1017.7 - 0.2 - Partly cloudy 10 - - - -
24/06:30am 6.3 WNW 12 17 1017.2 - 0.0 - Partly cloudy 10 - - - -
24/06:16am 6.5 WNW 13 17 1017.2 - 0.0 - Partly cloudy 10 - - - -
24/06:00am 6.1 WNW 14 20 1017.2 - 0.0 - Cloudy 5 - - - -
24/05:57am 6.1 WNW 14 19 1017.3 - 0.0 - Partly cloudy 7 - - - -
24/05:30am 6.4 WNW 15 19 1016.8 - 0.0 - Partly cloudy 10 - - - -
24/05:00am 6.4 WNW 15 19 1016.6 - 0.0 - Partly cloudy 10 - - - -
24/04:30am 5.8 NW 13 18 1016.3 - 0.0 - Partly cloudy 10 - - - -
24/04:00am 6.0 NW 13 19 1016.4 - 0.0 - - 10 - - - -
24/03:30am 5.7 NW 13 17 1016.3 - 0.0 - - 10 - - - -
24/03:00am 5.0 NNW 10 12 1016.2 - 0.0 - - 10 - - - -
24/02:30am 5.4 NW 10 14 1016.3 - 0.0 - - 10 - - - -
24/02:00am 5.0 NNW 11 13 1016.6 - 0.0 - - 10 - - - -
24/01:30am 5.0 NNW 10 12 1017.0 - 0.0 - - 10 - - - -
24/01:00am 5.3 NNW 9 11 1017.3 - 0.0 - - 10 - - - -
24/12:30am 5.8 NW 8 10 1017.6 - 0.0 - - 10 - - - -
24/12:00am 6.3 NW 8 10 1017.9 - 0.0 - Mostly clear 10 - - - -
 
Date/Time
CST
Temp
°C
Wind Pressure Rain since
9am
mm
Weather Cloud Vis
km
Sea
Height
m
Swell
Dir  Spd
kts
Gust
kts
hPa Trend Height
m
Period
s
Dir
23/11:30pm 7.4 WNW 10 13 1018.2 - 0.0 - Cloudy 10 - - - -
23/11:00pm 6.8 WNW 9 12 1018.4 - 0.0 - Partly cloudy 10 - - - -
23/10:30pm 6.2 NW 9 11 1018.3 - 0.0 - Partly cloudy 10 - - - -
23/10:00pm 6.8 NW 9 11 1018.5 - 0.0 - - 10 - - - -
23/09:30pm 7.4 NW 9 11 1018.4 - 0.0 - - 10 - - - -
23/09:00pm 8.3 NW 10 13 1018.4 - 0.0 - - 10 - - - -
23/08:30pm 8.5 NW 9 11 1018.3 - 0.0 - Partly cloudy 10 - - - -
23/08:00pm 8.6 NNW 9 12 1018.1 - 0.0 - - 10 - - - -
23/07:30pm 8.2 NNW 8 9 1017.8 - 0.0 - - 10 - - - -
23/07:00pm 9.1 NNW 8 9 1017.6 - 0.0 - - 10 - - - -
23/06:30pm 10.5 NW 7 8 1017.6 - 0.0 - Partly cloudy 10 - - - -
23/06:00pm 11.9 WNW 8 10 1017.4 - 0.0 - Mostly clear 10 - - - -
23/05:30pm 13.3 WNW 10 13 1017.3 - 0.0 - Partly cloudy 10 - - - -
23/05:00pm 14.3 WNW 11 15 1017.5 - 0.0 - Partly cloudy 10 - - - -
23/04:30pm 14.4 WNW 11 15 1017.7 - 0.0 - Cloudy 10 - - - -
23/04:00pm 14.3 NW 13 17 1017.7 - 0.0 - Cloudy 10 - - - -
23/03:30pm 14.2 NW 13 18 1017.9 - 0.0 - Cloudy 10 - - - -
23/03:00pm 14.9 WNW 13 17 1017.7 - 0.0 - Cloudy 10 - - - -
23/02:30pm 14.5 WNW 13 18 1018.4 - 0.0 - Partly cloudy 10 - - - -
23/02:00pm 14.2 WNW 14 17 1018.4 - 0.0 - Partly cloudy 10 - - - -
23/01:30pm 13.9 WNW 11 15 1018.8 - 0.0 - Partly cloudy 10 - - - -
23/01:00pm 12.9 WNW 12 16 1019.2 - 0.0 - Partly cloudy 10 - - - -
23/12:36pm 12.4 WNW 12 16 1019.7 - 0.0 - Partly cloudy 10 - - - -
23/12:30pm 12.9 WNW 10 15 1019.8 - 0.0 - Partly cloudy 10 - - - -
23/12:25pm 12.6 WNW 11 14 1020.0 - 0.0 - Partly cloudy 7 - - - -
23/12:00pm 13.5 NW 12 15 1020.6 - 0.0 - Cloudy 10 - - - -
23/11:30am 12.4 NW 9 14 1020.9 - 0.0 - Partly cloudy 10 - - - -
23/11:00am 10.8 WNW 7 11 1021.2 - 0.0 - Partly cloudy 10 - - - -
23/10:39am 10.3 W 11 14 1021.6 - 0.0 - Partly cloudy 7 - - - -
23/10:30am 10.7 WNW 9 13 1021.6 - 0.0 - Partly cloudy 10 - - - -
23/10:00am 9.8 WNW 9 11 1021.3 - 0.0 - Partly cloudy 10 - - - -
23/09:30am 7.9 NW 9 12 1021.3 - 0.0 - Partly cloudy 10 - - - -
23/09:00am 7.2 WNW 7 12 1020.9 - 1.4 - Mostly cloudy 10 - - - -
23/08:30am 6.2 NW 9 11 1020.5 - 1.4 - Partly cloudy 10 - - - -
23/08:00am 6.0 WNW 10 14 1020.3 - 1.4 - Partly cloudy 10 - - - -
23/07:30am 5.4 NW 8 10 1019.9 - 1.4 - Partly cloudy 10 - - - -
23/07:00am 5.7 WNW 8 11 1019.3 - 1.4 - - 10 - - - -
23/06:30am 6.2 WNW 9 12 1019.1 - 1.4 - Partly cloudy 10 - - - -
23/06:04am 6.6 WNW 9 13 1019.3 - 1.4 - Partly cloudy 7 - - - -
23/06:00am 6.5 WNW 8 11 1019.2 - 1.4 Recent precip. Cloudy 10 - - - -
23/05:30am 6.1 WNW 11 14 1018.8 - 1.4 - Partly cloudy 10 - - - -
23/05:00am 6.3 NW 8 11 1018.9 - 1.2 - Partly cloudy 10 - - - -
23/04:30am 6.2 WNW 8 10 1019.1 - 1.2 - Partly cloudy 10 - - - -
23/04:00am 6.7 WNW 8 11 1018.9 - 1.2 - - 10 - - - -
23/03:30am 7.5 W 11 14 1018.9 - 1.2 - Partly cloudy 10 - - - -
23/03:00am 7.9 W 13 16 1018.8 - 1.2 - Mostly cloudy 10 - - - -
23/02:30am 7.0 WNW 11 13 1019.2 - 1.2 - - 10 - - - -
23/02:00am 7.1 WNW 11 13 1019.2 - 1.2 - - 10 - - - -
23/01:30am 7.5 WNW 11 14 1019.5 - 1.2 - - 10 - - - -
23/01:03am 7.9 WNW 11 15 1019.4 - 1.2 - Partly cloudy 10 - - - -
23/01:00am 8.0 WNW 11 15 1019.4 - 1.2 - Partly cloudy 10 - - - -
23/12:47am 8.1 WNW 13 18 1019.5 - 1.2 - Partly cloudy 7 - - - -
23/12:30am 8.3 WNW 12 16 1019.4 - 1.2 - Partly cloudy 10 - - - -
23/12:27am 8.3 WNW 12 18 1019.4 - 1.2 - Partly cloudy 10 - - - -
23/12:03am 8.8 WNW 13 18 1019.8 - 1.0 - Partly cloudy 7 - - - -
23/12:00am 8.9 WNW 12 18 1019.7 - 1.0 Recent precip. Cloudy 10 - - - -
 
Date/Time
CST
Temp
°C
Wind Pressure Rain since
9am
mm
Weather Cloud Vis
km
Sea
Height
m
Swell
Dir  Spd
kts
Gust
kts
hPa Trend Height
m
Period
s
Dir
22/11:39pm 9.0 WNW 11 14 1019.7 - 0.8 - Partly cloudy 7 - - - -

Other Formats:

Comma delimited format used in spreadsheet applications
http://www.bom.gov.au/fwo/IDS60701/IDS60701.94651.axf

JavaScript Object Notation format (JSON) in row-major order
http://www.bom.gov.au/fwo/IDS60701/IDS60701.94651.json